Time;durP1;ratioP1;P1;durP2;ratioP2;P2;SDS_P1;SDS_P2;PMS_P1;PMS_P2;Temp;Humidity;BMP_temperature;BMP_pressure;BME280_temperature;BME280_humidity;BME280_pressure;Samples;Min_cycle;Max_cycle;Signal;HPM_P1;HPM_P2
2023/09/28 00:00:35;;;;;;;12.82;4.25;;;;;;;;;;5094211;28;20020;-40
2023/09/28 00:03:01;;;;;;;9.27;4.13;;;;;;;;;;5093992;28;20030;-40
2023/09/28 00:05:27;;;;;;;7.65;3.90;;;;;;;;;;5093883;28;20095;-41
2023/09/28 00:07:52;;;;;;;6.78;3.80;;;;;;;;;;5094096;28;20016;-41
2023/09/28 00:10:18;;;;;;;9.75;4.00;;;;;;;;;;5094361;28;20020;-40
2023/09/28 00:12:47;;;;;;;9.75;4.25;;;;;;;;;;5093742;28;20044;-40
2023/09/28 00:15:13;;;;;;;8.38;3.90;;;;;;;;;;5093719;28;20023;-39
2023/09/28 00:17:38;;;;;;;7.82;4.18;;;;;;;;;;5093671;28;20409;-41
2023/09/28 00:20:07;;;;;;;9.35;4.28;;;;;;;;;;5093927;28;20012;-41
2023/09/28 00:22:32;;;;;;;11.40;3.92;;;;;;;;;;5093928;28;20459;-41
2023/09/28 00:24:58;;;;;;;9.02;3.70;;;;;;;;;;5093646;28;20024;-40
2023/09/28 00:27:24;;;;;;;7.05;3.40;;;;;;;;;;5093534;28;20032;-41
2023/09/28 00:29:50;;;;;;;8.90;3.67;;;;;;;;;;5094159;28;20023;-40
2023/09/28 00:32:15;;;;;;;7.97;3.60;;;;;;;;;;5092921;28;20020;-41
2023/09/28 00:34:40;;;;;;;6.72;3.60;;;;;;;;;;5093508;28;20133;-40
2023/09/28 00:37:07;;;;;;;10.13;3.77;;;;;;;;;;5094102;28;20020;-40
2023/09/28 00:39:32;;;;;;;7.72;3.58;;;;;;;;;;5093413;28;20290;-41
2023/09/28 00:41:57;;;;;;;7.97;3.83;;;;;;;;;;5093520;28;20078;-40
2023/09/28 00:44:22;;;;;;;10.27;3.43;;;;;;;;;;5094041;28;20032;-41
2023/09/28 00:46:48;;;;;;;7.47;3.92;;;;;;;;;;5093331;28;20375;-41
2023/09/28 00:49:14;;;;;;;12.77;3.90;;;;;;;;;;5093637;28;20023;-40
2023/09/28 00:51:40;;;;;;;10.45;4.50;;;;;;;;;;5075242;28;20028;-41
2023/09/28 00:54:11;;;;;;;9.25;4.28;;;;;;;;;;5093644;28;20013;-40
2023/09/28 00:56:36;;;;;;;7.82;4.07;;;;;;;;;;5093329;28;20016;-40
2023/09/28 00:59:01;;;;;;;10.68;4.28;;;;;;;;;;5093332;28;20054;-41
2023/09/28 01:01:27;;;;;;;9.35;4.10;;;;;;;;;;5093296;28;20043;-40
2023/09/28 01:03:54;;;;;;;7.70;4.20;;;;;;;;;;5093308;28;20371;-41
2023/09/28 01:06:20;;;;;;;8.82;4.85;;;;;;;;;;5093432;28;20020;-40
2023/09/28 01:08:45;;;;;;;8.38;5.00;;;;;;;;;;5093272;28;20485;-41
2023/09/28 01:11:10;;;;;;;9.38;4.88;;;;;;;;;;5093088;28;20020;-41
2023/09/28 01:13:38;;;;;;;9.35;4.93;;;;;;;;;;5093156;28;20099;-41
2023/09/28 01:16:04;;;;;;;10.15;5.05;;;;;;;;;;5093035;28;20052;-40
2023/09/28 01:18:29;;;;;;;10.13;5.20;;;;;;;;;;5093882;28;20038;-41
2023/09/28 01:20:55;;;;;;;9.43;4.95;;;;;;;;;;5093333;28;20427;-40
2023/09/28 01:23:20;;;;;;;10.40;5.13;;;;;;;;;;5093092;28;20107;-41
2023/09/28 01:25:47;;;;;;;9.30;4.78;;;;;;;;;;5093147;28;20049;-40
2023/09/28 01:28:13;;;;;;;9.30;5.85;;;;;;;;;;5093347;28;20024;-41
2023/09/28 01:30:38;;;;;;;10.45;5.15;;;;;;;;;;5093061;28;20024;-41
2023/09/28 01:33:04;;;;;;;10.15;5.43;;;;;;;;;;5093238;28;20370;-41
2023/09/28 01:35:29;;;;;;;11.63;5.57;;;;;;;;;;5093294;28;20024;-41
2023/09/28 01:37:58;;;;;;;13.60;5.60;;;;;;;;;;5092737;28;20020;-41
2023/09/28 01:40:23;;;;;;;10.23;5.72;;;;;;;;;;5092796;28;20047;-40
2023/09/28 01:42:48;;;;;;;8.95;5.85;;;;;;;;;;5093164;28;20024;-40
2023/09/28 01:45:15;;;;;;;11.38;5.90;;;;;;;;;;5096393;28;20012;-40
2023/09/28 01:47:40;;;;;;;10.57;5.53;;;;;;;;;;5096721;28;20039;-40
2023/09/28 01:50:06;;;;;;;10.20;5.55;;;;;;;;;;5096925;28;20099;-40
2023/09/28 01:52:31;;;;;;;9.07;5.78;;;;;;;;;;5096203;28;20085;-40
2023/09/28 01:54:56;;;;;;;12.57;6.00;;;;;;;;;;5096350;28;20020;-40
2023/09/28 01:57:22;;;;;;;9.20;5.40;;;;;;;;;;5096237;28;20266;-40
2023/09/28 01:59:47;;;;;;;9.27;5.85;;;;;;;;;;5096198;28;20254;-41
2023/09/28 02:02:12;;;;;;;13.70;5.55;;;;;;;;;;5096416;28;20032;-41
2023/09/28 02:04:38;;;;;;;11.38;5.47;;;;;;;;;;5096444;28;20024;-40
2023/09/28 02:07:04;;;;;;;9.45;5.30;;;;;;;;;;5096344;28;20016;-41
2023/09/28 02:09:29;;;;;;;11.07;5.88;;;;;;;;;;5096540;28;20502;-40
2023/09/28 02:11:54;;;;;;;15.43;5.60;;;;;;;;;;5095899;28;20095;-41
2023/09/28 02:14:20;;;;;;;14.90;6.15;;;;;;;;;;5095922;28;20027;-40
2023/09/28 02:16:45;;;;;;;15.00;5.93;;;;;;;;;;5096021;28;20398;-41
2023/09/28 02:19:11;;;;;;;13.40;5.80;;;;;;;;;;5095910;28;20596;-40
2023/09/28 02:21:36;;;;;;;14.02;6.03;;;;;;;;;;5096037;28;20443;-40
2023/09/28 02:24:01;;;;;;;14.90;6.13;;;;;;;;;;5095762;28;20359;-41
2023/09/28 02:26:26;;;;;;;14.18;5.55;;;;;;;;;;5096006;28;20022;-41
2023/09/28 02:28:52;;;;;;;17.85;6.28;;;;;;;;;;5095976;28;20016;-41
2023/09/28 02:31:17;;;;;;;14.85;5.97;;;;;;;;;;5095861;28;20016;-40
2023/09/28 02:33:43;;;;;;;10.40;5.70;;;;;;;;;;5095886;28;20362;-41
2023/09/28 02:36:08;;;;;;;11.57;6.18;;;;;;;;;;5095423;28;20366;-41
2023/09/28 02:38:33;;;;;;;13.15;6.05;;;;;;;;;;5096083;28;20023;-41
2023/09/28 02:40:59;;;;;;;12.80;5.50;;;;;;;;;;5096050;28;20040;-40
2023/09/28 02:43:24;;;;;;;13.50;5.70;;;;;;;;;;5095949;28;20258;-40
2023/09/28 02:45:50;;;;;;;12.67;5.80;;;;;;;;;;5095351;28;20375;-40
2023/09/28 02:48:16;;;;;;;14.10;6.25;;;;;;;;;;5095556;28;20728;-41
2023/09/28 02:50:41;;;;;;;13.68;6.05;;;;;;;;;;5095483;28;20347;-40
2023/09/28 02:53:08;;;;;;;12.25;6.03;;;;;;;;;;5095363;28;20107;-40
2023/09/28 02:55:33;;;;;;;12.45;5.63;;;;;;;;;;5094515;28;20382;-40
2023/09/28 02:57:58;;;;;;;13.13;5.43;;;;;;;;;;5095102;28;20016;-40
2023/09/28 03:02:51;;;;;;;10.90;5.80;;;;;;;;;;5095054;28;20024;-40
2023/09/28 03:05:17;;;;;;;9.02;5.70;;;;;;;;;;5094900;28;20031;-40
2023/09/28 03:07:42;;;;;;;11.25;6.20;;;;;;;;;;5076713;28;20023;-40
2023/09/28 03:10:10;;;;;;;11.18;5.55;;;;;;;;;;5095056;28;20043;-40
2023/09/28 03:12:35;;;;;;;9.77;5.78;;;;;;;;;;5094997;28;20103;-40
2023/09/28 03:15:04;;;;;;;10.73;5.80;;;;;;;;;;5094882;28;20048;-40
2023/09/28 03:17:29;;;;;;;16.35;6.10;;;;;;;;;;5094604;28;20526;-40
2023/09/28 03:19:54;;;;;;;10.82;5.70;;;;;;;;;;5094676;28;20051;-40
2023/09/28 03:22:20;;;;;;;12.75;5.65;;;;;;;;;;5094629;28;20022;-40
2023/09/28 03:24:46;;;;;;;12.15;5.88;;;;;;;;;;5094818;28;20483;-40
2023/09/28 03:27:12;;;;;;;10.85;6.00;;;;;;;;;;5095079;28;20466;-40
2023/09/28 03:29:37;;;;;;;11.07;5.60;;;;;;;;;;5095127;28;20077;-40
2023/09/28 03:32:02;;;;;;;11.23;5.68;;;;;;;;;;5094416;28;20034;-40
2023/09/28 03:34:27;;;;;;;11.95;5.55;;;;;;;;;;5094646;28;20093;-40
2023/09/28 03:36:52;;;;;;;15.60;5.77;;;;;;;;;;5076215;28;20023;-40
2023/09/28 03:39:18;;;;;;;9.97;5.30;;;;;;;;;;5094958;28;20258;-39
2023/09/28 03:41:44;;;;;;;14.45;5.03;;;;;;;;;;5094567;28;20270;-40
2023/09/28 03:44:09;;;;;;;9.40;4.60;;;;;;;;;;5094822;28;20473;-41
2023/09/28 03:46:34;;;;;;;12.85;4.70;;;;;;;;;;5094756;28;20028;-41
2023/09/28 03:49:00;;;;;;;12.98;4.00;;;;;;;;;;5094078;28;20031;-40
2023/09/28 03:51:25;;;;;;;17.90;4.20;;;;;;;;;;5094210;28;20016;-40
2023/09/28 03:53:50;;;;;;;10.77;3.50;;;;;;;;;;5094327;28;20020;-40
2023/09/28 03:56:16;;;;;;;12.25;3.35;;;;;;;;;;5094078;28;20027;-41
2023/09/28 03:58:41;;;;;;;14.52;3.80;;;;;;;;;;5094022;28;20019;-40
2023/09/28 04:01:07;;;;;;;16.60;3.65;;;;;;;;;;5094210;28;20041;-40
2023/09/28 04:03:33;;;;;;;15.30;3.13;;;;;;;;;;5094195;28;20016;-40
2023/09/28 04:05:59;;;;;;;18.92;3.63;;;;;;;;;;5094045;28;20476;-41
2023/09/28 04:08:24;;;;;;;17.38;3.38;;;;;;;;;;5094162;28;20016;-41
2023/09/28 04:10:50;;;;;;;15.50;3.38;;;;;;;;;;5093867;28;20051;-40
2023/09/28 04:13:16;;;;;;;23.10;3.80;;;;;;;;;;5093980;28;20107;-40
2023/09/28 04:15:41;;;;;;;24.80;3.90;;;;;;;;;;5093430;28;20040;-40
2023/09/28 04:18:08;;;;;;;24.08;4.13;;;;;;;;;;5094006;28;20027;-40
2023/09/28 04:20:33;;;;;;;27.80;3.67;;;;;;;;;;5093653;28;20047;-40
2023/09/28 04:22:58;;;;;;;28.98;3.88;;;;;;;;;;5093899;28;20051;-40
2023/09/28 04:25:26;;;;;;;24.13;3.75;;;;;;;;;;5093945;28;20030;-40
2023/09/28 04:27:51;;;;;;;24.83;3.38;;;;;;;;;;5093582;28;20028;-40
2023/09/28 04:30:17;;;;;;;25.20;3.50;;;;;;;;;;5093645;28;20016;-40
2023/09/28 04:32:42;;;;;;;22.30;3.65;;;;;;;;;;5093369;28;20057;-40
2023/09/28 04:35:10;;;;;;;26.67;3.80;;;;;;;;;;5093841;28;20012;-39
2023/09/28 04:37:35;;;;;;;24.23;3.78;;;;;;;;;;5093801;28;20054;-40
2023/09/28 04:40:01;;;;;;;33.00;3.75;;;;;;;;;;5094053;28;20020;-40
2023/09/28 04:42:26;;;;;;;28.85;4.40;;;;;;;;;;5093786;28;20508;-40
2023/09/28 04:44:51;;;;;;;23.35;4.07;;;;;;;;;;5093414;28;20036;-41
2023/09/28 04:47:17;;;;;;;28.42;4.00;;;;;;;;;;5093374;28;20022;-40
2023/09/28 04:49:42;;;;;;;34.75;5.05;;;;;;;;;;5094146;28;20031;-40
2023/09/28 04:52:10;;;;;;;27.85;4.10;;;;;;;;;;5093614;28;20039;-40
2023/09/28 04:54:35;;;;;;;29.63;4.38;;;;;;;;;;5093576;28;20458;-40
2023/09/28 04:57:00;;;;;;;25.08;4.07;;;;;;;;;;5093321;28;20027;-40
2023/09/28 04:59:27;;;;;;;28.55;3.63;;;;;;;;;;5093564;28;20016;-40
2023/09/28 05:01:52;;;;;;;29.73;3.65;;;;;;;;;;5093524;28;20106;-40
2023/09/28 05:04:17;;;;;;;26.87;3.60;;;;;;;;;;5093548;28;20411;-41
2023/09/28 05:06:43;;;;;;;24.77;3.72;;;;;;;;;;5093487;28;20335;-41
2023/09/28 05:09:08;;;;;;;29.50;5.07;;;;;;;;;;5093274;28;20031;-41
2023/09/28 05:11:34;;;;;;;22.27;3.53;;;;;;;;;;5093713;28;20274;-41
2023/09/28 05:13:59;;;;;;;24.73;3.58;;;;;;;;;;5093378;28;20258;-41
2023/09/28 05:16:25;;;;;;;34.57;4.10;;;;;;;;;;5093312;28;20044;-41
2023/09/28 05:18:50;;;;;;;25.17;4.30;;;;;;;;;;5076913;28;20258;-41
2023/09/28 05:21:16;;;;;;;29.15;4.18;;;;;;;;;;5097152;28;20720;-41
2023/09/28 05:23:42;;;;;;;22.77;3.90;;;;;;;;;;5096845;28;20020;-41
2023/09/28 05:26:07;;;;;;;22.17;3.70;;;;;;;;;;5097142;28;20019;-40
2023/09/28 05:28:32;;;;;;;26.45;3.85;;;;;;;;;;5096693;28;20376;-40
2023/09/28 05:30:57;;;;;;;30.83;3.80;;;;;;;;;;5097052;28;20361;-40
2023/09/28 05:33:23;;;;;;;25.63;3.93;;;;;;;;;;5096879;28;20433;-40
2023/09/28 05:35:48;;;;;;;29.95;4.72;;;;;;;;;;5096955;28;20332;-40
2023/09/28 05:38:13;;;;;;;22.02;4.07;;;;;;;;;;5096660;28;20016;-41
2023/09/28 05:40:38;;;;;;;22.23;3.80;;;;;;;;;;5097204;28;20072;-40
2023/09/28 05:43:04;;;;;;;25.60;3.83;;;;;;;;;;5096570;28;20397;-40
2023/09/28 05:45:29;;;;;;;24.37;4.30;;;;;;;;;;5097058;28;20054;-40
2023/09/28 05:47:54;;;;;;;23.70;3.85;;;;;;;;;;5096748;28;20620;-40
2023/09/28 05:50:20;;;;;;;26.10;3.75;;;;;;;;;;5096459;28;20020;-40
2023/09/28 05:52:47;;;;;;;30.02;3.90;;;;;;;;;;5096324;28;20016;-40
2023/09/28 05:55:12;;;;;;;28.67;4.57;;;;;;;;;;5096246;28;20016;-40
2023/09/28 05:57:37;;;;;;;27.53;5.00;;;;;;;;;;5096276;28;20020;-40
2023/09/28 06:00:09;;;;;;;27.02;3.97;;;;;;;;;;5096168;28;20264;-40
2023/09/28 06:02:34;;;;;;;21.23;3.58;;;;;;;;;;5096415;28;20070;-40
2023/09/28 06:04:59;;;;;;;29.95;4.00;;;;;;;;;;5096179;28;20470;-39
2023/09/28 06:07:25;;;;;;;27.08;3.95;;;;;;;;;;5096201;28;20043;-40
2023/09/28 06:09:50;;;;;;;26.25;4.43;;;;;;;;;;5096495;28;20066;-40
2023/09/28 06:12:15;;;;;;;28.57;4.17;;;;;;;;;;5095889;28;20024;-39
2023/09/28 06:14:40;;;;;;;30.43;3.90;;;;;;;;;;5095886;28;20095;-40
2023/09/28 06:17:05;;;;;;;23.73;4.10;;;;;;;;;;5096499;28;20286;-40
2023/09/28 06:19:31;;;;;;;25.27;3.57;;;;;;;;;;5096149;28;20489;-40
2023/09/28 06:21:57;;;;;;;23.50;3.92;;;;;;;;;;5095712;28;20266;-40
2023/09/28 06:24:22;;;;;;;24.27;3.75;;;;;;;;;;5095982;28;20480;-40
2023/09/28 06:26:49;;;;;;;26.52;4.55;;;;;;;;;;5095886;28;20027;-40
2023/09/28 06:29:14;;;;;;;20.73;3.83;;;;;;;;;;5094851;28;20058;-40
2023/09/28 06:31:39;;;;;;;26.02;4.22;;;;;;;;;;5095046;28;20066;-40
2023/09/28 06:34:06;;;;;;;26.38;3.80;;;;;;;;;;5095070;28;20106;-40
2023/09/28 06:36:32;;;;;;;36.03;4.50;;;;;;;;;;5095298;28;20095;-40
2023/09/28 06:38:57;;;;;;;30.92;4.15;;;;;;;;;;5094949;28;20020;-40
2023/09/28 06:41:23;;;;;;;22.03;3.50;;;;;;;;;;5094973;28;20012;-40
2023/09/28 06:43:48;;;;;;;29.83;4.20;;;;;;;;;;5095057;28;20089;-40
2023/09/28 06:46:14;;;;;;;30.48;4.82;;;;;;;;;;5095139;28;20262;-40
2023/09/28 06:48:39;;;;;;;25.63;4.55;;;;;;;;;;5095087;28;20073;-40
2023/09/28 06:51:05;;;;;;;28.27;3.83;;;;;;;;;;5095916;28;20020;-40
2023/09/28 06:53:31;;;;;;;24.58;4.07;;;;;;;;;;5095378;28;20065;-40
2023/09/28 06:55:59;;;;;;;20.40;3.58;;;;;;;;;;5095129;28;20409;-40
2023/09/28 06:58:24;;;;;;;24.40;4.20;;;;;;;;;;5095390;28;20016;-40
2023/09/28 07:00:50;;;;;;;33.03;4.15;;;;;;;;;;5094918;28;20435;-40
2023/09/28 07:03:16;;;;;;;23.30;3.87;;;;;;;;;;5095413;28;20024;-40
2023/09/28 07:05:42;;;;;;;27.60;4.15;;;;;;;;;;5095027;28;20273;-40
2023/09/28 07:08:07;;;;;;;29.83;4.60;;;;;;;;;;5076950;28;20378;-40
2023/09/28 07:10:33;;;;;;;27.90;4.20;;;;;;;;;;5095013;28;20027;-39
2023/09/28 07:13:00;;;;;;;31.83;3.80;;;;;;;;;;5094930;28;20022;-40
2023/09/28 07:15:26;;;;;;;30.45;4.22;;;;;;;;;;5094676;28;20382;-40
2023/09/28 07:17:52;;;;;;;27.30;4.28;;;;;;;;;;5076923;28;20020;-41
2023/09/28 07:20:17;;;;;;;25.53;4.10;;;;;;;;;;5095081;28;20344;-39
2023/09/28 07:22:42;;;;;;;30.13;3.95;;;;;;;;;;5094593;28;20303;-42
2023/09/28 07:25:09;;;;;;;30.70;4.38;;;;;;;;;;5094816;28;20070;-41
2023/09/28 07:27:34;;;;;;;32.33;4.40;;;;;;;;;;5094754;28;20020;-41
2023/09/28 07:29:59;;;;;;;28.23;4.30;;;;;;;;;;5094443;28;20077;-39
2023/09/28 07:32:26;;;;;;;28.38;4.22;;;;;;;;;;5094559;28;20059;-39
2023/09/28 07:34:52;;;;;;;23.90;4.10;;;;;;;;;;5094406;28;20016;-39
2023/09/28 07:37:18;;;;;;;30.98;4.18;;;;;;;;;;5094676;28;20024;-40
2023/09/28 07:39:43;;;;;;;28.40;4.57;;;;;;;;;;5094970;28;20135;-39
2023/09/28 07:42:08;;;;;;;29.63;4.50;;;;;;;;;;5094199;28;20027;-39
2023/09/28 07:44:34;;;;;;;26.50;4.40;;;;;;;;;;5094775;28;20095;-39
2023/09/28 07:46:59;;;;;;;27.05;4.05;;;;;;;;;;5093939;28;20024;-39
2023/09/28 07:49:24;;;;;;;36.67;4.30;;;;;;;;;;5093461;28;20466;-40
2023/09/28 07:51:50;;;;;;;25.20;4.27;;;;;;;;;;5093303;28;20016;-42
2023/09/28 07:54:15;;;;;;;33.23;4.80;;;;;;;;;;5093373;28;20262;-40
2023/09/28 07:56:40;;;;;;;29.37;4.20;;;;;;;;;;5093605;28;20026;-40
2023/09/28 07:59:05;;;;;;;28.93;4.40;;;;;;;;;;5093263;28;20258;-40
2023/09/28 08:01:35;;;;;;;33.33;4.60;;;;;;;;;;5093583;28;20258;-39
2023/09/28 08:04:01;;;;;;;31.65;4.53;;;;;;;;;;5093835;28;20262;-39
2023/09/28 08:06:26;;;;;;;32.42;4.78;;;;;;;;;;5093789;28;20049;-40
2023/09/28 08:08:51;;;;;;;28.27;4.00;;;;;;;;;;5094101;28;20142;-40
2023/09/28 08:11:17;;;;;;;29.83;4.23;;;;;;;;;;5094275;28;20024;-39
2023/09/28 08:13:43;;;;;;;30.83;4.57;;;;;;;;;;5093865;28;20253;-40
2023/09/28 08:16:09;;;;;;;34.08;4.65;;;;;;;;;;5075409;28;20440;-40
2023/09/28 08:18:34;;;;;;;23.23;3.67;;;;;;;;;;5093711;28;20023;-41
2023/09/28 08:20:59;;;;;;;33.33;4.77;;;;;;;;;;5094278;28;20319;-40
2023/09/28 08:23:24;;;;;;;32.78;4.50;;;;;;;;;;5094413;28;20258;-40
2023/09/28 08:25:50;;;;;;;37.13;4.67;;;;;;;;;;5093830;28;20035;-41
2023/09/28 08:28:15;;;;;;;29.00;4.07;;;;;;;;;;5093438;28;20647;-41
2023/09/28 08:30:41;;;;;;;25.80;4.10;;;;;;;;;;5093789;28;20362;-42
2023/09/28 08:33:08;;;;;;;30.00;4.35;;;;;;;;;;5093991;28;20671;-41
2023/09/28 08:35:33;;;;;;;36.17;5.13;;;;;;;;;;5093803;28;20012;-40
2023/09/28 08:37:59;;;;;;;33.17;4.40;;;;;;;;;;5093442;28;20428;-40
2023/09/28 08:40:24;;;;;;;25.85;4.53;;;;;;;;;;5093496;28;20524;-41
2023/09/28 08:42:50;;;;;;;27.27;4.30;;;;;;;;;;5093484;28;20024;-41
2023/09/28 08:45:16;;;;;;;21.98;4.13;;;;;;;;;;5093978;28;20391;-41
2023/09/28 08:47:48;;;;;;;32.50;4.45;;;;;;;;;;5093640;28;20166;-40
2023/09/28 08:50:16;;;;;;;30.38;4.75;;;;;;;;;;5093663;28;20016;-40
2023/09/28 08:52:42;;;;;;;32.58;4.43;;;;;;;;;;5093338;28;20099;-41
2023/09/28 08:55:08;;;;;;;29.23;4.53;;;;;;;;;;5097767;28;20058;-40
2023/09/28 08:57:35;;;;;;;28.13;4.88;;;;;;;;;;5097429;28;20027;-40
2023/09/28 09:00:00;;;;;;;26.05;4.57;;;;;;;;;;5097239;28;20020;-41
2023/09/28 09:02:26;;;;;;;35.42;4.88;;;;;;;;;;5097659;28;20061;-40
2023/09/28 09:04:52;;;;;;;25.05;4.15;;;;;;;;;;5097519;28;20035;-40
2023/09/28 09:07:19;;;;;;;35.63;4.90;;;;;;;;;;5097052;28;20070;-40
2023/09/28 09:09:45;;;;;;;32.95;4.65;;;;;;;;;;5097154;28;20073;-41
2023/09/28 09:12:10;;;;;;;25.33;4.40;;;;;;;;;;5097323;28;20058;-40
2023/09/28 09:14:36;;;;;;;33.42;5.10;;;;;;;;;;5097404;28;20396;-40
2023/09/28 09:17:02;;;;;;;28.92;4.25;;;;;;;;;;5096955;28;20065;-40
2023/09/28 09:19:31;;;;;;;23.83;4.55;;;;;;;;;;5097355;28;20020;-41
2023/09/28 09:21:57;;;;;;;26.02;4.63;;;;;;;;;;5097248;28;20462;-40
2023/09/28 09:24:23;;;;;;;25.92;4.45;;;;;;;;;;5097268;28;20377;-40
2023/09/28 09:26:52;;;;;;;25.38;4.60;;;;;;;;;;5096934;28;20016;-40
2023/09/28 09:29:18;;;;;;;22.60;4.32;;;;;;;;;;5096763;28;20016;-40
2023/09/28 09:31:44;;;;;;;27.13;4.35;;;;;;;;;;5096730;28;20104;-41
2023/09/28 09:34:14;;;;;;;31.13;4.45;;;;;;;;;;5097303;28;20015;-41
2023/09/28 09:36:39;;;;;;;25.05;3.92;;;;;;;;;;5096861;28;20027;-41
2023/09/28 09:39:06;;;;;;;28.20;4.65;;;;;;;;;;5096466;28;20352;-41
2023/09/28 09:41:42;;;;;;;29.05;4.88;;;;;;;;;;5096843;28;20020;-41
2023/09/28 09:44:09;;;;;;;25.80;4.47;;;;;;;;;;5096989;28;20016;-40
2023/09/28 09:46:35;;;;;;;25.63;4.38;;;;;;;;;;5096431;28;20073;-40
2023/09/28 09:49:02;;;;;;;23.58;4.25;;;;;;;;;;5096594;28;20020;-41
2023/09/28 09:51:27;;;;;;;31.08;4.45;;;;;;;;;;5096629;28;20012;-41
2023/09/28 09:53:53;;;;;;;28.23;4.38;;;;;;;;;;5096597;28;20015;-41
2023/09/28 09:56:18;;;;;;;24.50;4.53;;;;;;;;;;5096268;28;20024;-41
2023/09/28 09:58:48;;;;;;;26.45;4.45;;;;;;;;;;5096490;28;20588;-41
2023/09/28 10:01:13;;;;;;;26.00;3.88;;;;;;;;;;5096316;28;20028;-41
2023/09/28 10:03:51;;;;;;;27.10;4.95;;;;;;;;;;5096159;28;20031;-41
2023/09/28 10:06:18;;;;;;;19.13;3.90;;;;;;;;;;5096294;28;20413;-41
2023/09/28 10:08:45;;;;;;;25.92;4.55;;;;;;;;;;5096304;28;20020;-41
2023/09/28 10:11:10;;;;;;;23.52;3.80;;;;;;;;;;5095940;28;20024;-41
2023/09/28 10:13:36;;;;;;;30.25;4.88;;;;;;;;;;5096052;28;20028;-42
2023/09/28 10:16:02;;;;;;;30.10;4.25;;;;;;;;;;5095670;28;20040;-40
2023/09/28 10:18:29;;;;;;;27.17;4.70;;;;;;;;;;5096145;28;20024;-40
2023/09/28 10:20:54;;;;;;;23.65;4.25;;;;;;;;;;5096057;28;20008;-40
2023/09/28 10:23:23;;;;;;;29.77;4.65;;;;;;;;;;5095784;28;20374;-40
2023/09/28 10:25:59;;;;;;;27.17;4.32;;;;;;;;;;5095953;28;20046;-41
2023/09/28 10:28:24;;;;;;;28.00;4.22;;;;;;;;;;5095585;28;20111;-41
2023/09/28 10:31:22;;;;;;;29.23;5.10;;;;;;;;;;5095840;28;20203;-41
2023/09/28 10:33:58;;;;;;;28.10;4.82;;;;;;;;;;5050829;28;20036;-40
2023/09/28 10:36:23;;;;;;;26.23;4.57;;;;;;;;;;5095419;28;20023;-41
2023/09/28 10:39:04;;;;;;;27.88;4.10;;;;;;;;;;5095343;28;20016;-41
2023/09/28 10:41:30;;;;;;;23.25;4.38;;;;;;;;;;5095861;28;20016;-41
2023/09/28 10:43:55;;;;;;;21.40;4.18;;;;;;;;;;5095258;28;20416;-41
2023/09/28 10:46:21;;;;;;;28.13;4.57;;;;;;;;;;5094320;28;20547;-39
2023/09/28 10:48:46;;;;;;;31.65;5.03;;;;;;;;;;5095581;28;20027;-40
2023/09/28 10:51:15;;;;;;;26.00;4.20;;;;;;;;;;5095477;28;20065;-40
2023/09/28 10:53:41;;;;;;;26.63;4.30;;;;;;;;;;5095202;28;20112;-40
2023/09/28 10:56:06;;;;;;;22.15;4.47;;;;;;;;;;5095425;28;20087;-41
2023/09/28 10:58:35;;;;;;;22.92;4.47;;;;;;;;;;5094953;28;20471;-41
2023/09/28 11:01:04;;;;;;;23.02;4.28;;;;;;;;;;5095015;28;20020;-41
2023/09/28 11:03:30;;;;;;;29.15;4.38;;;;;;;;;;5094832;28;20031;-41
2023/09/28 11:05:55;;;;;;;27.80;4.28;;;;;;;;;;5094896;28;20024;-41
2023/09/28 11:08:21;;;;;;;24.77;4.43;;;;;;;;;;5094800;28;20020;-45
2023/09/28 11:10:47;;;;;;;28.80;3.85;;;;;;;;;;5094723;28;20073;-41
2023/09/28 11:13:12;;;;;;;26.25;4.60;;;;;;;;;;5095191;28;20024;-41
2023/09/28 11:15:38;;;;;;;22.33;4.27;;;;;;;;;;5094031;28;20050;-40
2023/09/28 11:18:04;;;;;;;26.38;4.22;;;;;;;;;;5094942;28;20298;-41
2023/09/28 11:20:31;;;;;;;29.35;4.25;;;;;;;;;;5094965;28;20083;-41
2023/09/28 11:22:57;;;;;;;23.55;3.72;;;;;;;;;;5095409;28;20107;-41
2023/09/28 11:25:22;;;;;;;29.40;5.30;;;;;;;;;;5094813;28;20081;-41
2023/09/28 11:27:47;;;;;;;23.65;4.45;;;;;;;;;;5094569;28;20012;-40
2023/09/28 11:30:16;;;;;;;33.10;4.15;;;;;;;;;;5094649;28;20027;-41
2023/09/28 11:32:51;;;;;;;29.02;4.93;;;;;;;;;;5094304;28;20031;-41
2023/09/28 11:35:22;;;;;;;22.33;4.18;;;;;;;;;;5094535;28;20012;-41
2023/09/28 11:37:48;;;;;;;25.63;4.65;;;;;;;;;;5094323;28;20095;-41
2023/09/28 11:40:13;;;;;;;20.92;3.83;;;;;;;;;;5094549;28;20459;-41
2023/09/28 11:42:39;;;;;;;29.55;4.22;;;;;;;;;;5094568;28;20073;-41
2023/09/28 11:45:05;;;;;;;21.48;3.63;;;;;;;;;;5094105;28;20109;-41
2023/09/28 11:47:30;;;;;;;28.83;4.20;;;;;;;;;;5094132;28;20110;-41
2023/09/28 11:49:55;;;;;;;26.33;4.53;;;;;;;;;;5094101;28;20020;-41
2023/09/28 11:52:21;;;;;;;26.17;3.90;;;;;;;;;;5094636;28;20659;-41
2023/09/28 11:54:47;;;;;;;30.07;4.20;;;;;;;;;;5094119;28;20246;-41
2023/09/28 11:57:12;;;;;;;20.83;3.67;;;;;;;;;;5094293;28;20462;-41
2023/09/28 11:59:38;;;;;;;25.95;4.20;;;;;;;;;;5094238;28;20022;-40
2023/09/28 12:02:04;;;;;;;31.30;4.68;;;;;;;;;;5075670;28;20020;-41
2023/09/28 12:04:29;;;;;;;22.55;3.85;;;;;;;;;;5074492;28;20039;-41
2023/09/28 12:06:54;;;;;;;25.85;3.97;;;;;;;;;;5093947;28;20027;-41
2023/09/28 12:09:20;;;;;;;33.45;4.30;;;;;;;;;;5093794;28;20473;-41
2023/09/28 12:11:45;;;;;;;25.73;3.70;;;;;;;;;;5093908;28;20020;-41
2023/09/28 12:14:10;;;;;;;24.35;3.70;;;;;;;;;;5093585;28;20020;-41
2023/09/28 12:16:36;;;;;;;26.07;4.10;;;;;;;;;;5093544;28;20047;-41
2023/09/28 12:19:01;;;;;;;25.98;4.28;;;;;;;;;;5094387;28;20127;-42
2023/09/28 12:21:27;;;;;;;21.90;3.63;;;;;;;;;;5093516;28;20023;-40
2023/09/28 12:23:52;;;;;;;22.63;3.70;;;;;;;;;;5093772;28;20016;-41
2023/09/28 12:26:17;;;;;;;18.98;3.80;;;;;;;;;;5093774;28;20450;-42
2023/09/28 12:28:43;;;;;;;25.23;4.32;;;;;;;;;;5093420;28;20012;-41
2023/09/28 12:31:08;;;;;;;20.48;4.13;;;;;;;;;;5092520;28;20016;-41
2023/09/28 12:33:34;;;;;;;25.02;3.95;;;;;;;;;;5093274;28;20022;-42
2023/09/28 12:35:59;;;;;;;24.95;4.30;;;;;;;;;;5093485;28;20048;-41
2023/09/28 12:38:24;;;;;;;26.07;4.00;;;;;;;;;;5093513;28;20517;-41
2023/09/28 12:40:50;;;;;;;29.60;3.97;;;;;;;;;;5093521;28;20020;-41
2023/09/28 12:43:16;;;;;;;19.27;4.00;;;;;;;;;;5093373;28;20260;-41
2023/09/28 12:45:41;;;;;;;20.52;3.38;;;;;;;;;;5093437;28;20024;-40
2023/09/28 12:48:07;;;;;;;24.45;4.22;;;;;;;;;;5093683;28;20081;-41
2023/09/28 12:50:32;;;;;;;19.92;3.67;;;;;;;;;;5093328;28;20024;-40
2023/09/28 12:53:00;;;;;;;23.75;3.83;;;;;;;;;;5093746;28;20036;-41
2023/09/28 12:55:25;;;;;;;17.67;3.67;;;;;;;;;;5093603;28;20069;-41
2023/09/28 12:57:50;;;;;;;19.50;3.60;;;;;;;;;;5092778;28;20475;-41
2023/09/28 13:00:16;;;;;;;27.60;3.83;;;;;;;;;;5091504;28;20062;-41
2023/09/28 13:02:42;;;;;;;17.10;3.47;;;;;;;;;;5091437;28;20107;-41
2023/09/28 13:05:08;;;;;;;14.10;3.58;;;;;;;;;;5092833;28;20096;-41
2023/09/28 13:07:34;;;;;;;18.70;3.65;;;;;;;;;;5092139;28;20056;-42
2023/09/28 13:09:59;;;;;;;18.50;3.38;;;;;;;;;;5093185;28;20024;-41
2023/09/28 13:12:24;;;;;;;19.90;3.57;;;;;;;;;;5093613;28;20027;-41
2023/09/28 13:14:50;;;;;;;17.55;3.53;;;;;;;;;;5093102;28;20453;-41
2023/09/28 13:17:16;;;;;;;21.38;3.40;;;;;;;;;;5090830;28;20052;-39
2023/09/28 13:19:43;;;;;;;22.90;3.30;;;;;;;;;;5091230;28;20024;-40
2023/09/28 13:22:09;;;;;;;20.52;3.13;;;;;;;;;;5091185;28;20016;-40
2023/09/28 13:24:34;;;;;;;19.58;3.50;;;;;;;;;;5091216;28;20042;-40
2023/09/28 13:27:01;;;;;;;18.50;3.50;;;;;;;;;;5090866;28;20023;-40
2023/09/28 13:29:26;;;;;;;19.77;3.25;;;;;;;;;;5090999;28;20043;-40
2023/09/28 13:31:51;;;;;;;21.50;3.95;;;;;;;;;;5092198;28;20063;-40
2023/09/28 13:34:20;;;;;;;16.93;3.00;;;;;;;;;;5091279;28;20378;-41
2023/09/28 13:36:45;;;;;;;21.73;3.33;;;;;;;;;;5093090;28;20295;-40
2023/09/28 13:39:14;;;;;;;18.60;3.38;;;;;;;;;;5094008;28;20020;-40
2023/09/28 13:41:39;;;;;;;19.00;3.08;;;;;;;;;;5079375;28;20048;-41
2023/09/28 13:44:06;;;;;;;16.90;3.53;;;;;;;;;;5097036;28;20059;-40
2023/09/28 13:46:31;;;;;;;23.88;3.67;;;;;;;;;;5096784;28;20095;-40
2023/09/28 13:48:56;;;;;;;17.55;3.63;;;;;;;;;;5096475;28;20099;-40
2023/09/28 13:51:22;;;;;;;18.57;3.77;;;;;;;;;;5096472;28;20016;-40
2023/09/28 13:53:47;;;;;;;21.10;3.47;;;;;;;;;;5096581;28;20054;-40
2023/09/28 13:56:15;;;;;;;21.77;3.40;;;;;;;;;;5096806;28;20015;-48
2023/09/28 13:58:40;;;;;;;14.52;2.90;;;;;;;;;;5096524;28;20051;-40
2023/09/28 14:01:07;;;;;;;20.05;3.53;;;;;;;;;;5096298;28;20091;-40
2023/09/28 14:03:32;;;;;;;20.67;3.30;;;;;;;;;;5096752;28;20024;-40
2023/09/28 14:05:57;;;;;;;14.55;2.90;;;;;;;;;;5096369;28;20099;-40
2023/09/28 14:08:24;;;;;;;19.90;3.17;;;;;;;;;;5096398;28;20012;-41
2023/09/28 14:10:50;;;;;;;23.60;3.33;;;;;;;;;;5096246;28;20286;-41
2023/09/28 14:13:15;;;;;;;17.75;3.53;;;;;;;;;;5096433;28;20107;-40
2023/09/28 14:15:40;;;;;;;14.73;2.85;;;;;;;;;;5077629;28;20064;-39
2023/09/28 14:18:06;;;;;;;17.00;3.60;;;;;;;;;;5095980;28;20012;-40
2023/09/28 14:20:35;;;;;;;11.68;2.53;;;;;;;;;;5095856;28;20012;-40
2023/09/28 14:23:01;;;;;;;20.67;3.50;;;;;;;;;;5096006;28;20527;-41
2023/09/28 14:25:26;;;;;;;15.03;2.77;;;;;;;;;;5095682;28;20016;-41